createdAt,value
2022-10-29T00:00:36.430Z,94.83
2022-10-29T00:03:03.092Z,95.15
2022-10-29T00:05:29.648Z,94.57
2022-10-29T00:07:56.395Z,94.53
2022-10-29T00:10:23.214Z,94.50
2022-10-29T00:12:49.614Z,94.72
2022-10-29T00:15:16.206Z,94.85
2022-10-29T00:17:42.615Z,95.49
2022-10-29T00:20:09.539Z,95.54
2022-10-29T00:22:36.087Z,96.69
2022-10-29T00:25:02.522Z,96.16
2022-10-29T00:27:28.950Z,96.30
2022-10-29T00:29:55.698Z,96.03
2022-10-29T00:32:22.117Z,95.81
2022-10-29T00:34:48.492Z,95.89
2022-10-29T00:37:14.904Z,95.74
2022-10-29T00:39:41.316Z,94.88
2022-10-29T00:42:15.238Z,95.55
2022-10-29T00:44:42.079Z,95.63
2022-10-29T00:47:26.208Z,96.49
2022-10-29T00:50:01.037Z,96.33
2022-10-29T00:52:30.844Z,97.16
2022-10-29T00:55:00.126Z,96.76
2022-10-29T00:57:33.544Z,96.99
2022-10-29T01:00:00.052Z,97.35
2022-10-29T01:02:27.369Z,97.59
2022-10-29T01:04:54.001Z,97.32
2022-10-29T01:07:22.290Z,97.23
2022-10-29T01:09:49.956Z,97.11
2022-10-29T01:12:53.899Z,97.45
2022-10-29T01:15:29.023Z,97.93
2022-10-29T01:18:21.190Z,98.17
2022-10-29T01:21:09.309Z,99.09
2022-10-29T01:24:16.230Z,99.18
2022-10-29T01:26:48.801Z,98.34
2022-10-29T01:29:24.708Z,97.90
2022-10-29T01:32:05.035Z,98.64
2022-10-29T01:34:56.419Z,98.81
2022-10-29T01:37:54.466Z,99.18
2022-10-29T01:40:32.115Z,99.26
2022-10-29T01:45:55.806Z,99.73
2022-10-29T01:48:33.245Z,99.68
2022-10-29T01:51:04.845Z,100.00
2022-10-29T01:53:34.677Z,100.00
2022-10-29T01:56:01.062Z,99.47
2022-10-29T01:58:27.843Z,100.00
2022-10-29T02:01:09.360Z,100.00
2022-10-29T02:03:49.135Z,100.00
2022-10-29T02:06:42.159Z,100.00
2022-10-29T02:09:19.915Z,100.00
2022-10-29T02:11:59.420Z,100.00
2022-10-29T02:14:50.318Z,100.00
2022-10-29T02:17:17.210Z,100.00
2022-10-29T02:19:43.819Z,100.00
2022-10-29T02:22:10.247Z,100.00
2022-10-29T02:24:36.651Z,100.00
2022-10-29T02:27:03.092Z,100.00
2022-10-29T02:29:29.526Z,100.00
2022-10-29T02:31:55.930Z,100.00
2022-10-29T02:34:22.350Z,100.00
2022-10-29T02:36:48.773Z,100.00
2022-10-29T02:39:15.174Z,100.00
2022-10-29T02:41:41.602Z,100.00
2022-10-29T02:44:08.011Z,100.00
2022-10-29T02:46:39.638Z,100.00
2022-10-29T02:49:07.268Z,100.00
2022-10-29T02:51:34.011Z,100.00
2022-10-29T02:54:00.421Z,100.00
2022-10-29T02:56:26.857Z,100.00
2022-10-29T02:58:53.231Z,100.00
2022-10-29T03:01:19.831Z,100.00
2022-10-29T03:03:46.360Z,100.00
2022-10-29T03:06:14.941Z,100.00
2022-10-29T03:08:41.506Z,100.00
2022-10-29T03:11:08.384Z,100.00
2022-10-29T03:13:34.817Z,100.00
2022-10-29T03:16:01.351Z,100.00
2022-10-29T03:18:27.837Z,100.00
2022-10-29T03:20:54.304Z,100.00
2022-10-29T03:23:20.770Z,100.00
2022-10-29T03:25:55.543Z,100.00
2022-10-29T03:28:24.031Z,100.00
2022-10-29T03:30:50.605Z,100.00
2022-10-29T03:33:17.012Z,100.00
2022-10-29T03:35:43.561Z,100.00
2022-10-29T03:38:10.122Z,100.00
2022-10-29T03:40:36.524Z,100.00
2022-10-29T03:43:03.047Z,100.00
2022-10-29T03:45:29.499Z,100.00
2022-10-29T03:47:57.571Z,100.00
2022-10-29T03:50:24.320Z,100.00
2022-10-29T03:52:50.744Z,100.00
2022-10-29T03:55:17.250Z,100.00
2022-10-29T03:57:43.742Z,100.00
2022-10-29T04:00:10.523Z,100.00
2022-10-29T04:02:37.083Z,100.00
2022-10-29T04:05:03.775Z,99.79
2022-10-29T04:07:30.159Z,99.19
2022-10-29T04:09:56.563Z,100.00
2022-10-29T04:12:22.947Z,100.00
2022-10-29T04:17:20.721Z,100.00
2022-10-29T04:19:47.165Z,100.00
2022-10-29T04:28:41.818Z,100.00
2022-10-29T04:30:32.935Z,100.00
2022-10-29T04:33:00.406Z,100.00
2022-10-29T04:35:28.611Z,100.00
2022-10-29T04:37:55.473Z,100.00
2022-10-29T04:40:24.423Z,100.00
2022-10-29T04:42:51.002Z,100.00
2022-10-29T04:45:17.998Z,100.00
2022-10-29T04:47:44.795Z,100.00
2022-10-29T04:50:11.209Z,100.00
2022-10-29T04:52:37.626Z,100.00
2022-10-29T04:55:04.389Z,100.00
2022-10-29T04:57:30.843Z,100.00
2022-10-29T04:59:57.256Z,100.00
2022-10-29T05:02:23.738Z,100.00
2022-10-29T05:04:50.131Z,100.00
2022-10-29T05:07:16.535Z,100.00
2022-10-29T05:09:42.930Z,100.00
2022-10-29T05:12:09.338Z,100.00
2022-10-29T05:14:35.745Z,100.00
2022-10-29T05:17:02.225Z,100.00
2022-10-29T05:19:28.697Z,100.00
2022-10-29T05:21:55.128Z,100.00
2022-10-29T05:24:21.592Z,100.00
2022-10-29T05:26:48.035Z,100.00
2022-10-29T05:29:14.414Z,100.00
2022-10-29T05:31:40.819Z,99.89
2022-10-29T05:34:07.258Z,99.78
2022-10-29T05:36:33.650Z,99.45
2022-10-29T05:39:00.075Z,99.58
2022-10-29T05:41:26.492Z,99.55
2022-10-29T05:43:52.917Z,99.74
2022-10-29T05:46:19.852Z,98.98
2022-10-29T05:48:46.409Z,99.08
2022-10-29T05:51:12.826Z,99.34
2022-10-29T05:53:39.307Z,99.95
2022-10-29T05:56:06.227Z,99.80
2022-10-29T05:58:32.650Z,99.89
2022-10-29T06:00:59.051Z,99.19
2022-10-29T06:03:25.538Z,99.61
2022-10-29T06:05:52.009Z,99.51
2022-10-29T06:08:18.753Z,99.31
2022-10-29T06:10:45.178Z,99.47
2022-10-29T06:13:13.243Z,99.39
2022-10-29T06:15:39.968Z,99.47
2022-10-29T06:18:06.739Z,99.26
2022-10-29T06:20:33.190Z,99.13
2022-10-29T06:22:59.951Z,98.79
2022-10-29T06:25:27.368Z,97.83
2022-10-29T06:28:05.176Z,97.65
2022-10-29T06:30:33.957Z,97.60
2022-10-29T06:33:00.899Z,97.36
2022-10-29T06:35:27.670Z,96.73
2022-10-29T06:37:54.783Z,96.88
2022-10-29T06:40:21.706Z,97.09
2022-10-29T06:42:48.150Z,96.84
2022-10-29T06:45:14.959Z,96.29
2022-10-29T06:47:42.788Z,96.33
2022-10-29T06:50:10.905Z,96.61
2022-10-29T06:52:37.756Z,96.41
2022-10-29T06:55:05.903Z,96.71
2022-10-29T06:57:32.622Z,95.87
2022-10-29T07:00:02.403Z,95.58
2022-10-29T07:02:32.359Z,94.77
2022-10-29T07:04:58.758Z,94.06
2022-10-29T07:07:28.319Z,93.39
2022-10-29T07:09:54.750Z,93.70
2022-10-29T07:12:21.145Z,93.51
2022-10-29T07:14:47.542Z,93.53
2022-10-29T07:17:13.955Z,92.20
2022-10-29T07:19:40.433Z,91.74
2022-10-29T07:22:06.839Z,91.62
2022-10-29T07:24:33.250Z,91.71
2022-10-29T07:26:59.776Z,91.31
2022-10-29T07:29:26.187Z,91.27
2022-10-29T07:31:52.610Z,91.17
2022-10-29T07:34:19.034Z,90.24
2022-10-29T07:36:45.427Z,89.88
2022-10-29T07:39:11.823Z,88.96
2022-10-29T07:41:38.224Z,88.40
2022-10-29T07:44:04.664Z,87.72
2022-10-29T07:46:31.062Z,87.15
2022-10-29T07:48:57.522Z,86.39
2022-10-29T07:51:23.902Z,85.76
2022-10-29T07:53:50.302Z,84.42
2022-10-29T07:56:16.699Z,83.55
2022-10-29T07:58:43.086Z,82.74
2022-10-29T08:01:09.576Z,82.17
2022-10-29T08:03:36.344Z,78.92
2022-10-29T08:06:02.771Z,76.08
2022-10-29T08:08:29.274Z,75.34
2022-10-29T08:11:00.171Z,73.59
2022-10-29T08:13:26.718Z,73.65
2022-10-29T08:15:53.312Z,70.89
2022-10-29T08:18:19.815Z,72.12
2022-10-29T08:20:46.650Z,70.29
2022-10-29T08:23:14.218Z,68.11
2022-10-29T08:25:42.667Z,69.18
2022-10-29T08:28:12.183Z,69.20
2022-10-29T08:30:39.251Z,66.47
2022-10-29T08:33:05.853Z,65.81
2022-10-29T08:35:33.314Z,63.99
2022-10-29T08:37:59.944Z,62.66
2022-10-29T08:40:58.996Z,62.35
2022-10-29T08:43:31.211Z,60.06
2022-10-29T08:45:57.785Z,59.28
2022-10-29T08:48:39.877Z,59.78
2022-10-29T08:51:18.510Z,58.69
2022-10-29T08:53:58.738Z,59.89
2022-10-29T08:56:36.885Z,59.65
2022-10-29T08:59:13.318Z,58.84
2022-10-29T09:01:39.929Z,58.13
2022-10-29T09:04:27.991Z,57.76
2022-10-29T09:07:34.371Z,56.08
2022-10-29T09:10:19.109Z,55.22
2022-10-29T09:13:04.806Z,52.41
2022-10-29T09:15:57.779Z,53.85
2022-10-29T09:18:47.782Z,54.02
2022-10-29T09:21:32.150Z,54.46
2022-10-29T09:24:15.352Z,52.31
2022-10-29T09:26:47.539Z,53.77
2022-10-29T09:29:32.845Z,54.83
2022-10-29T09:32:11.363Z,52.93
2022-10-29T09:34:46.007Z,51.74
2022-10-29T09:37:23.711Z,50.28
2022-10-29T09:39:50.111Z,50.41
2022-10-29T09:42:44.552Z,49.67
2022-10-29T09:45:18.486Z,49.34
2022-10-29T09:48:08.172Z,49.64
2022-10-29T09:50:52.708Z,48.96
2022-10-29T09:53:19.261Z,49.03
2022-10-29T09:55:53.618Z,50.43
2022-10-29T09:58:24.908Z,50.81
2022-10-29T10:00:53.039Z,49.50
2022-10-29T10:03:30.246Z,47.80
2022-10-29T10:06:10.986Z,47.29
2022-10-29T10:09:06.575Z,46.41
2022-10-29T10:11:39.729Z,47.35
2022-10-29T10:14:27.440Z,45.52
2022-10-29T10:17:01.391Z,43.75
2022-10-29T10:19:30.795Z,43.40
2022-10-29T10:22:02.988Z,43.43
2022-10-29T10:24:29.531Z,42.64
2022-10-29T10:26:55.950Z,42.86
2022-10-29T10:29:24.577Z,43.05
2022-10-29T10:32:13.595Z,43.47
2022-10-29T10:34:40.114Z,43.08
2022-10-29T10:37:09.224Z,43.41
2022-10-29T10:39:37.230Z,42.71
2022-10-29T10:42:06.877Z,43.89
2022-10-29T10:44:33.893Z,43.67
2022-10-29T10:47:06.892Z,41.80
2022-10-29T10:49:38.655Z,41.98
2022-10-29T10:52:18.488Z,41.91
2022-10-29T10:54:55.238Z,41.33
2022-10-29T10:57:25.805Z,40.96
2022-10-29T11:00:18.623Z,41.02
2022-10-29T11:03:08.762Z,40.98
2022-10-29T11:05:43.119Z,40.80
2022-10-29T11:08:18.871Z,40.47
2022-10-29T11:10:53.457Z,40.69
2022-10-29T11:13:27.081Z,40.08
2022-10-29T11:16:12.072Z,40.37
2022-10-29T11:18:48.382Z,40.20
2022-10-29T11:21:35.159Z,39.72
2022-10-29T11:24:02.071Z,40.44
2022-10-29T11:26:37.481Z,40.59
2022-10-29T11:29:09.920Z,39.89
2022-10-29T11:32:14.369Z,39.34
2022-10-29T11:35:04.203Z,38.65
2022-10-29T11:38:07.893Z,39.00
2022-10-29T11:40:44.786Z,39.12
2022-10-29T11:43:12.621Z,39.32
2022-10-29T11:45:50.025Z,39.30
2022-10-29T11:48:30.967Z,38.34
2022-10-29T11:51:18.599Z,38.22
2022-10-29T11:54:09.955Z,37.41
2022-10-29T11:56:53.215Z,37.16
2022-10-29T11:59:34.378Z,37.20
2022-10-29T12:02:37.943Z,37.39
2022-10-29T12:05:21.005Z,37.67
2022-10-29T12:08:05.950Z,37.32
2022-10-29T12:10:50.685Z,37.14
2022-10-29T12:13:30.732Z,37.04
2022-10-29T12:16:00.159Z,36.95
2022-10-29T12:18:44.830Z,37.68
2022-10-29T12:21:19.930Z,38.33
2022-10-29T12:24:20.726Z,38.46
2022-10-29T12:27:14.463Z,38.63
2022-10-29T12:29:56.876Z,38.80
2022-10-29T12:32:35.588Z,39.46
2022-10-29T12:35:20.311Z,39.75
2022-10-29T12:38:14.551Z,39.85
2022-10-29T12:40:44.726Z,38.83
2022-10-29T12:43:19.496Z,40.07
2022-10-29T12:49:03.462Z,41.14
2022-10-29T12:52:02.532Z,42.06
2022-10-29T12:54:43.219Z,42.54
2022-10-29T12:57:12.569Z,42.22
2022-10-29T12:59:40.476Z,41.70
2022-10-29T13:02:36.420Z,41.99
2022-10-29T13:05:05.724Z,40.98
2022-10-29T13:07:33.299Z,41.54
2022-10-29T13:10:25.138Z,42.53
2022-10-29T13:13:16.483Z,42.70
2022-10-29T13:16:02.523Z,42.71
2022-10-29T13:18:46.089Z,43.31
2022-10-29T13:21:12.572Z,43.68
2022-10-29T13:23:39.076Z,44.28
2022-10-29T13:26:07.952Z,44.17
2022-10-29T13:28:37.131Z,43.91
2022-10-29T13:31:03.479Z,44.49
2022-10-29T13:33:29.858Z,45.00
2022-10-29T13:36:26.803Z,45.40
2022-10-29T13:39:05.279Z,45.23
2022-10-29T13:41:42.741Z,45.20
2022-10-29T13:44:12.668Z,45.17
2022-10-29T13:47:02.532Z,45.58
2022-10-29T13:49:44.964Z,46.16
2022-10-29T13:52:16.340Z,45.85
2022-10-29T13:54:46.813Z,46.59
2022-10-29T13:57:19.244Z,46.94
2022-10-29T13:59:53.946Z,47.36
2022-10-29T14:02:33.509Z,47.73
2022-10-29T14:05:15.714Z,47.96
2022-10-29T14:07:51.427Z,47.78
2022-10-29T14:10:23.690Z,48.55
2022-10-29T14:12:55.749Z,49.42
2022-10-29T14:15:22.602Z,49.02
2022-10-29T14:17:49.073Z,49.14
2022-10-29T14:20:27.328Z,49.22
2022-10-29T14:22:54.880Z,49.15
2022-10-29T14:25:24.714Z,49.48
2022-10-29T14:28:10.186Z,49.49
2022-10-29T14:30:36.936Z,49.76
2022-10-29T14:33:27.445Z,50.99
2022-10-29T14:36:19.390Z,51.08
2022-10-29T14:38:48.843Z,51.28
2022-10-29T14:41:16.511Z,51.60
2022-10-29T14:43:44.538Z,51.99
2022-10-29T14:46:23.842Z,52.76
2022-10-29T14:48:59.523Z,53.30
2022-10-29T14:51:27.114Z,53.88
2022-10-29T14:54:01.740Z,54.36
2022-10-29T14:56:35.505Z,54.40
2022-10-29T14:59:07.511Z,54.56
2022-10-29T15:01:34.196Z,54.67
2022-10-29T15:04:01.889Z,55.49
2022-10-29T15:06:30.042Z,55.63
2022-10-29T15:08:59.740Z,55.93
2022-10-29T15:11:39.658Z,56.11
2022-10-29T15:14:24.211Z,56.29
2022-10-29T15:16:50.852Z,57.17
2022-10-29T15:19:18.059Z,57.05
2022-10-29T15:21:45.069Z,57.64
2022-10-29T15:24:20.910Z,57.71
2022-10-29T15:26:54.506Z,57.81
2022-10-29T15:29:30.595Z,58.14
2022-10-29T15:32:00.031Z,58.55
2022-10-29T15:34:32.522Z,58.43
2022-10-29T15:37:19.265Z,58.96
2022-10-29T15:40:10.278Z,59.03
2022-10-29T15:42:37.168Z,59.24
2022-10-29T15:47:41.043Z,59.30
2022-10-29T15:50:11.901Z,60.19
2022-10-29T15:52:42.086Z,60.08
2022-10-29T15:55:27.074Z,60.46
2022-10-29T15:57:59.519Z,60.35
2022-10-29T16:00:26.248Z,60.94
2022-10-29T16:02:55.564Z,60.72
2022-10-29T16:05:22.201Z,61.73
2022-10-29T16:07:48.682Z,61.74
2022-10-29T16:10:21.105Z,61.89
2022-10-29T16:12:49.544Z,62.08
2022-10-29T16:15:19.364Z,62.20
2022-10-29T16:17:46.482Z,62.45
2022-10-29T16:20:15.624Z,62.66
2022-10-29T16:22:42.061Z,62.86
2022-10-29T16:25:38.114Z,63.05
2022-10-29T16:28:04.654Z,63.15
2022-10-29T16:30:31.602Z,63.18
2022-10-29T16:32:58.244Z,63.27
2022-10-29T16:35:27.166Z,63.12
2022-10-29T16:37:56.021Z,62.92
2022-10-29T16:40:26.078Z,62.33
2022-10-29T16:42:55.047Z,63.08
2022-10-29T16:45:24.943Z,63.24
2022-10-29T16:47:52.314Z,63.48
2022-10-29T16:50:24.107Z,63.63
2022-10-29T16:53:08.780Z,63.30
2022-10-29T16:55:37.701Z,63.83
2022-10-29T16:58:06.785Z,64.45
2022-10-29T17:00:36.326Z,64.22
2022-10-29T17:03:06.752Z,64.47
2022-10-29T17:05:39.072Z,65.07
2022-10-29T17:08:06.163Z,65.21
2022-10-29T17:10:32.708Z,66.13
2022-10-29T17:13:00.001Z,66.02
2022-10-29T17:15:26.928Z,66.48
2022-10-29T17:17:53.428Z,67.00
2022-10-29T17:20:20.211Z,66.83
2022-10-29T17:22:46.732Z,67.05
2022-10-29T17:25:13.162Z,66.80
2022-10-29T17:27:43.234Z,66.78
2022-10-29T17:30:10.690Z,66.82
2022-10-29T17:32:37.181Z,67.20
2022-10-29T17:35:04.152Z,67.54
2022-10-29T17:37:30.694Z,68.00
2022-10-29T17:40:00.322Z,68.42
2022-10-29T17:42:30.528Z,68.70
2022-10-29T17:44:56.939Z,69.05
2022-10-29T17:47:23.343Z,68.89
2022-10-29T17:49:49.767Z,69.63
2022-10-29T17:52:17.420Z,69.89
2022-10-29T17:54:43.828Z,70.00
2022-10-29T17:57:10.218Z,70.23
2022-10-29T17:59:36.634Z,70.26
2022-10-29T18:02:03.168Z,71.06
2022-10-29T18:04:29.685Z,70.77
2022-10-29T18:06:56.162Z,70.75
2022-10-29T18:09:22.635Z,70.90
2022-10-29T18:11:50.412Z,70.77
2022-10-29T18:14:16.954Z,70.62
2022-10-29T18:16:43.433Z,71.33
2022-10-29T18:19:09.847Z,71.17
2022-10-29T18:21:36.323Z,71.23
2022-10-29T18:24:02.787Z,71.38
2022-10-29T18:26:33.975Z,71.82
2022-10-29T18:29:02.551Z,72.15
2022-10-29T18:31:30.900Z,72.50
2022-10-29T18:33:58.755Z,72.22
2022-10-29T18:36:25.451Z,72.09
2022-10-29T18:38:53.828Z,72.74
2022-10-29T18:41:20.690Z,72.33
2022-10-29T18:43:47.540Z,72.31
2022-10-29T18:46:14.654Z,72.74
2022-10-29T18:48:45.794Z,72.48
2022-10-29T18:51:19.741Z,73.00
2022-10-29T18:53:46.485Z,72.27
2022-10-29T18:56:15.302Z,72.65
2022-10-29T18:58:42.204Z,72.22
2022-10-29T19:01:14.303Z,72.60
2022-10-29T19:03:41.819Z,72.70
2022-10-29T19:06:11.114Z,73.18
2022-10-29T19:08:39.635Z,73.25
2022-10-29T19:11:09.116Z,73.64
2022-10-29T19:13:35.951Z,73.64
2022-10-29T19:16:04.850Z,73.45
2022-10-29T19:18:32.132Z,73.67
2022-10-29T19:21:06.515Z,73.71
2022-10-29T19:23:33.606Z,73.63
2022-10-29T19:26:08.516Z,73.48
2022-10-29T19:28:35.675Z,73.85
2022-10-29T19:31:07.782Z,73.63
2022-10-29T19:33:34.707Z,73.75
2022-10-29T19:36:01.743Z,74.42
2022-10-29T19:38:28.569Z,75.17
2022-10-29T19:40:58.281Z,75.88
2022-10-29T19:43:25.409Z,75.49
2022-10-29T19:45:52.483Z,75.02
2022-10-29T19:48:19.185Z,74.78
2022-10-29T19:50:46.174Z,74.79
2022-10-29T19:53:12.827Z,74.98
2022-10-29T19:55:40.658Z,75.27
2022-10-29T19:58:07.467Z,74.43
2022-10-29T20:00:33.897Z,75.03
2022-10-29T20:03:00.632Z,75.26
2022-10-29T20:05:27.292Z,74.90
2022-10-29T20:07:53.770Z,75.18
2022-10-29T20:10:20.166Z,75.55
2022-10-29T20:12:46.582Z,76.28
2022-10-29T20:15:13.135Z,75.82
2022-10-29T20:17:39.560Z,75.56
2022-10-29T20:20:06.696Z,75.21
2022-10-29T20:22:33.239Z,75.87
2022-10-29T20:24:59.702Z,76.29
2022-10-29T20:27:26.107Z,76.73
2022-10-29T20:29:52.566Z,77.53
2022-10-29T20:32:18.980Z,77.81
2022-10-29T20:34:45.362Z,77.81
2022-10-29T20:37:11.899Z,77.84
2022-10-29T20:39:38.307Z,78.17
2022-10-29T20:42:04.797Z,78.79
2022-10-29T20:44:31.311Z,78.59
2022-10-29T20:46:57.789Z,78.61
2022-10-29T20:49:24.240Z,79.09
2022-10-29T20:51:50.643Z,80.85
2022-10-29T20:54:17.056Z,79.50
2022-10-29T20:56:43.532Z,78.79
2022-10-29T20:59:09.950Z,79.17
2022-10-29T21:01:36.465Z,79.36
2022-10-29T21:04:03.138Z,80.72
2022-10-29T21:06:29.883Z,81.81
2022-10-29T21:08:56.495Z,82.48
2022-10-29T21:11:23.732Z,82.34
2022-10-29T21:13:50.667Z,82.68
2022-10-29T21:16:26.434Z,82.96
2022-10-29T21:19:00.733Z,82.45
2022-10-29T21:21:28.555Z,82.82
2022-10-29T21:23:56.795Z,82.90
2022-10-29T21:26:25.716Z,83.39
2022-10-29T21:28:53.305Z,83.19
2022-10-29T21:31:22.597Z,83.25
2022-10-29T21:33:50.955Z,83.25
2022-10-29T21:36:18.081Z,83.70
2022-10-29T21:38:44.533Z,83.00
2022-10-29T21:41:11.089Z,84.48
2022-10-29T21:43:38.274Z,84.19
2022-10-29T21:46:04.896Z,83.45
2022-10-29T21:48:31.369Z,83.69
2022-10-29T21:51:04.752Z,83.17
2022-10-29T21:53:31.391Z,83.10
2022-10-29T21:55:59.516Z,83.72
2022-10-29T21:58:26.491Z,84.28
2022-10-29T22:01:02.520Z,85.45
2022-10-29T22:03:37.319Z,86.07
2022-10-29T22:06:09.747Z,86.43
2022-10-29T22:08:36.213Z,87.24
2022-10-29T22:11:03.528Z,86.83
2022-10-29T22:13:30.786Z,87.84
2022-10-29T22:15:58.297Z,88.08
2022-10-29T22:18:25.742Z,88.59
2022-10-29T22:21:03.696Z,88.93
2022-10-29T22:23:30.038Z,89.60
2022-10-29T22:25:56.495Z,90.00
2022-10-29T22:28:22.881Z,90.49
2022-10-29T22:30:49.215Z,90.82
2022-10-29T22:33:15.622Z,90.67
2022-10-29T22:35:41.964Z,90.95
2022-10-29T22:38:08.366Z,90.72
2022-10-29T22:40:40.539Z,90.39
2022-10-29T22:43:07.046Z,90.69
2022-10-29T22:45:33.465Z,89.65
2022-10-29T22:47:59.850Z,89.42
2022-10-29T22:50:26.266Z,89.16
2022-10-29T22:52:52.654Z,88.53
2022-10-29T22:55:19.358Z,87.77
2022-10-29T22:57:45.775Z,87.08
2022-10-29T23:00:12.779Z,87.28
2022-10-29T23:02:39.214Z,86.60
2022-10-29T23:05:06.054Z,86.27
2022-10-29T23:10:04.058Z,86.22
2022-10-29T23:12:30.504Z,86.64
2022-10-29T23:14:56.899Z,87.42
2022-10-29T23:17:23.323Z,87.59
2022-10-29T23:19:49.719Z,87.86
2022-10-29T23:22:16.167Z,88.58
2022-10-29T23:24:42.622Z,89.05
2022-10-29T23:27:09.036Z,89.67
2022-10-29T23:29:35.441Z,90.24
2022-10-29T23:32:01.856Z,91.19
2022-10-29T23:34:28.269Z,91.12
2022-10-29T23:36:54.745Z,91.40
2022-10-29T23:39:21.142Z,90.73
2022-10-29T23:41:47.567Z,90.59
2022-10-29T23:44:13.973Z,90.15
2022-10-29T23:46:40.371Z,89.02
2022-10-29T23:49:06.843Z,88.82
2022-10-29T23:54:04.645Z,88.92
2022-10-29T23:56:31.066Z,88.70
2022-10-29T23:58:57.486Z,88.54
